Saint James, MN (56081)

5:39 PM CST on December 19, 2014 (GMT -0600)
Saint James Municipal | Change Station
CLOSE
Current Station
Airport
Location: St. James,
Elevation: 1066 ft
Nearby Weather Stations

Elev 1066 ft 43.99 °N, 94.56 °W | Updated 4 minutes ago

Overcast
Overcast
34 °F
Feels Like 25 °F
N
12
Wind Variable Wind from SSE

Today
High -- | Low -- °F
--% Chance of Precip.
Yesterday
High -- | Low -- °F
Precip. -- in
7:48 AM 4:42 PM
Waning Crescent, 5% visible
Pressure 30.16 in
Visibility 5.0 miles
Clouds Overcast 2000 ft
Windchill 25 °F
Dew Point 30 °F
Humidity 87%
Rainfall 0.00 in
Snow Depth Not available.
UV 0 out of 12
Pollen .10 out of 12
Air Quality Not available.
Flu Activity Not available.
METAR KJYG 192335Z AUTO 15010KT 5SM BR OVC020 01/M01 A3016 RMK AO2

More Conditions Fewer Conditions

Pressure 30.16 in
Visibility 5.0 miles
Clouds Overcast 2000 ft
Windchill 25 °F
Dew Point 30 °F
Humidity 87%
Rainfall 0.00 in
Snow Depth Not available.
UV 0 out of 12
Pollen .10 out of 12
Air Quality Not available.
Flu Activity Not available.
METAR KJYG 192335Z AUTO 15010KT 5SM BR OVC020 01/M01 A3016 RMK AO2

More Conditions Fewer Conditions

10-Day Weather Forecast

Almanac

Astronomy

Dec. 19, 2014 Rise Set
Actual Time
Civil Twilight
Nautical Twilight
Astronomical Twilight
Moon
Length of Visible Light
Length of Day
Tomorrow will be .
, % of the Moon is Illuminated

Today's Extremes

State Highs State Lows

Community

WunderPhotos

Upload Photos

1,779,073 photos uploaded!

WunderBlogs® & News

Nearby

Air Quality

  Air Quality AQ Index Pollutant
Not available.

Snow Depth

Station Depth Elevation

Earthquake Activity

City Distance Mag. Time & Date
Minimum magnitude displayed is 2.5.

Coastal Water Temperatures

Place Temperature

Nearby Weather Stations